createdAt,value
2018-05-23T00:00:28.986Z,0.00
2018-05-23T00:01:28.912Z,0.00
2018-05-23T00:02:28.838Z,0.00
2018-05-23T00:03:28.762Z,0.00
2018-05-23T00:04:28.690Z,0.00
2018-05-23T00:05:28.618Z,0.00
2018-05-23T00:06:28.549Z,0.00
2018-05-23T00:07:28.468Z,0.00
2018-05-23T00:08:28.395Z,0.00
2018-05-23T00:09:28.322Z,0.00
2018-05-23T00:10:28.251Z,0.00
2018-05-23T00:11:28.189Z,0.00
2018-05-23T00:12:28.102Z,0.00
2018-05-23T00:13:28.029Z,0.00
2018-05-23T00:14:27.959Z,0.00
2018-05-23T00:15:27.882Z,0.00
2018-05-23T00:16:27.809Z,0.00
2018-05-23T00:17:27.736Z,0.00
2018-05-23T00:18:27.667Z,0.00
2018-05-23T00:19:27.589Z,0.00
2018-05-23T00:20:27.527Z,0.00
2018-05-23T00:21:27.462Z,0.00
2018-05-23T00:22:27.367Z,0.00
2018-05-23T00:23:27.295Z,0.00
2018-05-23T00:24:27.242Z,0.00
2018-05-23T00:25:27.147Z,0.00
2018-05-23T00:26:27.083Z,0.00
2018-05-23T00:27:27.009Z,0.00
2018-05-23T00:28:26.962Z,0.00
2018-05-23T00:29:26.867Z,0.00
2018-05-23T00:30:26.781Z,0.00
2018-05-23T00:31:26.709Z,0.00
2018-05-23T00:32:26.651Z,0.00
2018-05-23T00:33:26.562Z,0.00
2018-05-23T00:34:26.494Z,0.00
2018-05-23T00:35:26.412Z,0.00
2018-05-23T00:36:26.355Z,0.00
2018-05-23T00:37:26.264Z,0.00
2018-05-23T00:38:26.197Z,0.00
2018-05-23T00:39:26.119Z,0.00
2018-05-23T00:40:26.049Z,0.00
2018-05-23T00:41:25.972Z,0.00
2018-05-23T00:42:25.898Z,0.00
2018-05-23T00:43:25.844Z,0.00
2018-05-23T00:44:25.752Z,0.00
2018-05-23T00:45:25.676Z,0.00
2018-05-23T00:46:25.615Z,0.00
2018-05-23T00:47:25.548Z,0.00
2018-05-23T00:48:25.460Z,0.00
2018-05-23T00:49:25.408Z,0.00
2018-05-23T00:50:25.312Z,0.00
2018-05-23T00:51:25.238Z,0.00
2018-05-23T00:52:25.172Z,0.00
2018-05-23T00:53:25.090Z,0.00
2018-05-23T00:54:25.028Z,0.00
2018-05-23T00:55:24.945Z,0.00
2018-05-23T00:56:24.869Z,0.00
2018-05-23T00:57:24.798Z,0.00
2018-05-23T00:58:24.724Z,0.00
2018-05-23T00:59:24.655Z,0.00
2018-05-23T01:00:24.576Z,0.00
2018-05-23T01:01:24.506Z,0.00
2018-05-23T01:02:24.442Z,0.00
2018-05-23T01:03:24.355Z,0.00
2018-05-23T01:04:24.282Z,0.00
2018-05-23T01:05:24.208Z,0.00
2018-05-23T01:06:24.137Z,0.00
2018-05-23T01:07:24.061Z,0.00
2018-05-23T01:08:24.009Z,0.00
2018-05-23T01:09:23.910Z,0.00
2018-05-23T01:10:23.840Z,0.00
2018-05-23T01:11:23.768Z,0.00
2018-05-23T01:12:23.694Z,0.00
2018-05-23T01:13:23.620Z,0.00
2018-05-23T01:14:23.549Z,0.00
2018-05-23T01:15:23.474Z,0.00
2018-05-23T01:16:23.399Z,0.00
2018-05-23T01:17:23.325Z,0.00
2018-05-23T01:18:23.249Z,0.00
2018-05-23T01:19:23.180Z,0.00
2018-05-23T01:20:23.108Z,0.00
2018-05-23T01:21:23.029Z,0.00
2018-05-23T01:22:22.956Z,0.00
2018-05-23T01:23:22.883Z,0.00
2018-05-23T01:24:22.808Z,0.00
2018-05-23T01:25:22.749Z,0.00
2018-05-23T01:26:22.672Z,0.00
2018-05-23T01:27:22.589Z,0.00
2018-05-23T01:28:22.515Z,0.00
2018-05-23T01:29:22.443Z,0.00
2018-05-23T01:30:22.368Z,0.00
2018-05-23T01:31:22.311Z,0.00
2018-05-23T01:32:22.224Z,0.00
2018-05-23T01:33:22.148Z,0.00
2018-05-23T01:34:22.087Z,0.00
2018-05-23T01:35:22.001Z,0.00
2018-05-23T01:36:21.926Z,0.00
2018-05-23T01:37:21.853Z,0.00
2018-05-23T01:38:21.783Z,0.00
2018-05-23T01:39:21.707Z,0.00
2018-05-23T01:40:21.632Z,0.00
2018-05-23T01:41:21.580Z,0.00
2018-05-23T01:42:21.484Z,0.00
2018-05-23T01:43:21.410Z,0.00
2018-05-23T01:44:21.337Z,0.00
2018-05-23T01:45:21.265Z,0.00
2018-05-23T01:46:21.191Z,0.00
2018-05-23T01:47:21.116Z,0.00
2018-05-23T01:48:21.047Z,0.00
2018-05-23T01:49:20.988Z,0.00
2018-05-23T01:50:20.915Z,0.00
2018-05-23T01:51:20.820Z,0.00
2018-05-23T01:52:20.749Z,0.00
2018-05-23T01:53:20.692Z,0.00
2018-05-23T01:54:20.602Z,0.00
2018-05-23T01:55:20.526Z,0.00
2018-05-23T01:56:20.453Z,0.00
2018-05-23T01:57:20.385Z,0.00
2018-05-23T01:58:20.306Z,0.00
2018-05-23T01:59:20.237Z,0.00
2018-05-23T02:00:20.156Z,0.00
2018-05-23T02:01:20.119Z,0.00
2018-05-23T02:02:20.009Z,0.00
2018-05-23T02:03:19.936Z,0.00
2018-05-23T02:04:19.879Z,0.00
2018-05-23T02:05:19.789Z,0.00
2018-05-23T02:06:19.714Z,0.00
2018-05-23T02:07:19.647Z,0.00
2018-05-23T02:08:19.567Z,0.00
2018-05-23T02:09:19.493Z,0.00
2018-05-23T02:10:19.421Z,0.00
2018-05-23T02:11:19.346Z,0.00
2018-05-23T02:12:19.273Z,0.00
2018-05-23T02:13:19.197Z,0.00
2018-05-23T02:14:19.124Z,0.00
2018-05-23T02:15:19.052Z,0.00
2018-05-23T02:16:18.986Z,0.00
2018-05-23T02:17:18.919Z,0.00
2018-05-23T02:18:18.828Z,0.00
2018-05-23T02:19:18.756Z,0.00
2018-05-23T02:20:18.683Z,0.00
2018-05-23T02:21:18.678Z,0.00
2018-05-23T02:22:18.536Z,0.00
2018-05-23T02:23:18.463Z,0.00
2018-05-23T02:24:18.388Z,0.00
2018-05-23T02:25:18.314Z,0.00
2018-05-23T02:26:18.238Z,0.00
2018-05-23T02:27:18.169Z,0.00
2018-05-23T02:28:18.105Z,0.00
2018-05-23T02:29:18.016Z,0.00
2018-05-23T02:30:17.945Z,0.00
2018-05-23T02:31:17.879Z,0.00
2018-05-23T02:32:17.796Z,0.00
2018-05-23T02:33:17.726Z,0.00
2018-05-23T02:34:17.648Z,0.00
2018-05-23T02:35:17.575Z,0.00
2018-05-23T02:36:17.501Z,0.00
2018-05-23T02:37:17.442Z,0.00
2018-05-23T02:38:17.350Z,0.00
2018-05-23T02:39:17.288Z,0.00
2018-05-23T02:40:17.207Z,0.00
2018-05-23T02:41:17.131Z,0.00
2018-05-23T02:42:17.062Z,0.00
2018-05-23T02:43:16.986Z,0.00
2018-05-23T02:44:16.910Z,0.00
2018-05-23T02:45:16.836Z,0.00
2018-05-23T02:46:16.760Z,0.00
2018-05-23T02:47:16.689Z,0.00
2018-05-23T02:48:16.617Z,0.00
2018-05-23T02:49:16.539Z,0.00
2018-05-23T02:50:16.475Z,0.00
2018-05-23T02:51:16.392Z,0.00
2018-05-23T02:52:16.315Z,0.00
2018-05-23T02:53:16.243Z,0.00
2018-05-23T02:54:16.172Z,0.00
2018-05-23T02:55:16.096Z,0.00
2018-05-23T02:56:16.021Z,0.00
2018-05-23T02:57:15.948Z,0.00
2018-05-23T02:58:15.873Z,0.00
2018-05-23T02:59:15.801Z,0.00
2018-05-23T03:00:15.725Z,0.00
2018-05-23T03:01:15.653Z,0.00
2018-05-23T03:02:15.582Z,0.00
2018-05-23T03:03:15.502Z,0.00
2018-05-23T03:04:15.431Z,0.00
2018-05-23T03:05:15.361Z,0.00
2018-05-23T03:06:15.280Z,0.00
2018-05-23T03:07:15.207Z,0.00
2018-05-23T03:08:15.143Z,0.00
2018-05-23T03:09:15.070Z,0.00
2018-05-23T03:10:14.984Z,0.00
2018-05-23T03:11:14.912Z,0.00
2018-05-23T03:12:14.838Z,0.00
2018-05-23T03:13:14.855Z,0.00
2018-05-23T03:14:14.688Z,0.00
2018-05-23T03:15:14.615Z,0.00
2018-05-23T03:16:14.540Z,0.00
2018-05-23T03:17:14.468Z,0.00
2018-05-23T03:18:14.392Z,0.00
2018-05-23T03:19:14.318Z,0.00
2018-05-23T03:20:14.243Z,0.00
2018-05-23T03:21:14.167Z,0.00
2018-05-23T03:22:14.147Z,0.00
2018-05-23T03:23:14.036Z,0.00
2018-05-23T03:24:13.946Z,0.00
2018-05-23T03:25:13.872Z,5.63
2018-05-23T03:26:13.800Z,5.63
2018-05-23T03:27:13.723Z,5.63
2018-05-23T03:28:13.654Z,5.63
2018-05-23T03:29:13.574Z,5.63
2018-05-23T03:30:13.510Z,5.63
2018-05-23T03:31:13.430Z,5.63
2018-05-23T03:32:13.353Z,11.25
2018-05-23T03:33:13.280Z,11.25
2018-05-23T03:34:13.206Z,11.25
2018-05-23T03:35:13.131Z,11.25
2018-05-23T03:36:13.057Z,11.25
2018-05-23T03:37:12.984Z,11.25
2018-05-23T03:38:12.915Z,11.25
2018-05-23T03:39:12.833Z,11.25
2018-05-23T03:40:12.760Z,11.25
2018-05-23T03:41:12.685Z,11.25
2018-05-23T03:42:12.611Z,11.25
2018-05-23T03:43:12.538Z,11.25
2018-05-23T03:44:12.476Z,11.25
2018-05-23T03:45:12.390Z,11.25
2018-05-23T03:46:12.315Z,11.25
2018-05-23T03:47:12.253Z,16.88
2018-05-23T03:48:12.169Z,16.88
2018-05-23T03:49:12.105Z,16.88
2018-05-23T03:50:12.017Z,16.88
2018-05-23T03:51:11.942Z,16.88
2018-05-23T03:52:11.872Z,22.50
2018-05-23T03:53:11.797Z,22.50
2018-05-23T03:54:11.721Z,22.50
2018-05-23T03:55:11.648Z,22.50
2018-05-23T03:56:11.573Z,22.50
2018-05-23T03:57:11.501Z,28.13
2018-05-23T03:58:11.425Z,28.13
2018-05-23T03:59:11.349Z,28.13
2018-05-23T04:00:11.275Z,28.13
2018-05-23T04:01:11.202Z,28.13
2018-05-23T04:02:11.129Z,28.13
2018-05-23T04:03:11.053Z,28.13
2018-05-23T04:04:10.979Z,28.13
2018-05-23T04:05:10.903Z,28.13
2018-05-23T04:06:10.900Z,33.75
2018-05-23T04:07:10.754Z,33.75
2018-05-23T04:08:10.696Z,33.75
2018-05-23T04:09:10.606Z,33.75
2018-05-23T04:10:10.533Z,33.75
2018-05-23T04:11:10.487Z,33.75
2018-05-23T04:12:10.383Z,33.75
2018-05-23T04:13:10.309Z,33.75
2018-05-23T04:14:10.235Z,39.38
2018-05-23T04:15:10.171Z,39.38
2018-05-23T04:16:10.089Z,39.38
2018-05-23T04:17:10.013Z,45.00
2018-05-23T04:18:09.942Z,45.00
2018-05-23T04:19:09.865Z,45.00
2018-05-23T04:20:09.790Z,45.00
2018-05-23T04:21:09.751Z,50.63
2018-05-23T04:22:09.646Z,50.63
2018-05-23T04:23:09.583Z,50.63
2018-05-23T04:24:09.498Z,56.25
2018-05-23T04:25:09.419Z,56.25
2018-05-23T04:26:09.343Z,61.88
2018-05-23T04:27:09.283Z,61.88
2018-05-23T04:28:09.201Z,61.88
2018-05-23T04:29:09.121Z,61.88
2018-05-23T04:30:09.045Z,61.88
2018-05-23T04:31:08.972Z,61.88
2018-05-23T04:32:08.920Z,67.50
2018-05-23T04:33:08.831Z,67.50
2018-05-23T04:34:08.754Z,67.50
2018-05-23T04:35:08.681Z,67.50
2018-05-23T04:36:08.606Z,67.50
2018-05-23T04:37:08.529Z,73.13
2018-05-23T04:38:08.455Z,73.13
2018-05-23T04:39:08.380Z,73.13
2018-05-23T04:40:08.306Z,73.13
2018-05-23T04:41:08.231Z,73.13
2018-05-23T04:42:08.171Z,78.75
2018-05-23T04:43:08.084Z,73.13
2018-05-23T04:44:08.011Z,73.13
2018-05-23T04:45:07.945Z,73.13
2018-05-23T04:46:07.865Z,78.75
2018-05-23T04:47:07.792Z,78.75
2018-05-23T04:48:07.715Z,78.75
2018-05-23T04:49:07.655Z,78.75
2018-05-23T04:50:07.565Z,84.38
2018-05-23T04:51:07.491Z,84.38
2018-05-23T04:52:07.421Z,84.38
2018-05-23T04:53:07.347Z,84.38
2018-05-23T04:54:07.271Z,84.38
2018-05-23T04:55:07.197Z,84.38
2018-05-23T04:56:07.125Z,84.38
2018-05-23T04:57:07.048Z,84.38
2018-05-23T04:58:06.975Z,78.75
2018-05-23T04:59:06.908Z,78.75
2018-05-23T05:00:06.837Z,78.75
2018-05-23T05:01:06.758Z,73.13
2018-05-23T05:02:06.681Z,73.13
2018-05-23T05:03:06.606Z,73.13
2018-05-23T05:04:06.537Z,73.13
2018-05-23T05:05:06.483Z,73.13
2018-05-23T05:06:06.384Z,73.13
2018-05-23T05:07:06.308Z,67.50
2018-05-23T05:08:06.241Z,67.50
2018-05-23T05:09:06.165Z,67.50
2018-05-23T05:10:06.148Z,67.50
2018-05-23T05:11:06.021Z,61.88
2018-05-23T05:12:05.943Z,61.88
2018-05-23T05:13:05.870Z,61.88
2018-05-23T05:14:05.797Z,56.25
2018-05-23T05:15:05.722Z,56.25
2018-05-23T05:16:05.647Z,56.25
2018-05-23T05:17:05.575Z,56.25
2018-05-23T05:18:05.512Z,56.25
2018-05-23T05:19:05.426Z,56.25
2018-05-23T05:20:05.352Z,56.25
2018-05-23T05:21:05.278Z,56.25
2018-05-23T05:22:05.204Z,56.25
2018-05-23T05:23:05.133Z,56.25
2018-05-23T05:24:05.078Z,56.25
2018-05-23T05:25:05.080Z,56.25
2018-05-23T05:26:04.909Z,56.25
2018-05-23T05:27:04.836Z,56.25
2018-05-23T05:28:04.761Z,56.25
2018-05-23T05:29:04.687Z,56.25
2018-05-23T05:30:04.612Z,56.25
2018-05-23T05:31:04.540Z,56.25
2018-05-23T05:32:04.487Z,56.25
2018-05-23T05:33:04.395Z,56.25
2018-05-23T05:34:04.319Z,61.88
2018-05-23T05:35:04.253Z,61.88
2018-05-23T05:36:04.171Z,61.88
2018-05-23T05:37:04.096Z,67.50
2018-05-23T05:38:04.025Z,67.50
2018-05-23T05:39:03.972Z,73.13
2018-05-23T05:40:03.878Z,78.75
2018-05-23T05:41:03.802Z,78.75
2018-05-23T05:42:03.728Z,84.38
2018-05-23T05:43:03.662Z,84.38
2018-05-23T05:44:03.582Z,90.00
2018-05-23T05:45:03.506Z,95.63
2018-05-23T05:46:03.436Z,95.63
2018-05-23T05:47:04.319Z,101.25
2018-05-23T05:48:03.320Z,106.88
2018-05-23T05:49:03.214Z,106.88
2018-05-23T05:50:03.143Z,118.13
2018-05-23T05:51:03.070Z,123.75
2018-05-23T05:52:02.995Z,129.38
2018-05-23T05:53:02.919Z,129.38
2018-05-23T05:54:02.846Z,135.00
2018-05-23T05:55:02.771Z,140.63
2018-05-23T05:56:02.696Z,146.25
2018-05-23T05:57:02.623Z,151.88
2018-05-23T05:58:02.550Z,151.88
2018-05-23T05:59:02.523Z,151.88
2018-05-23T06:00:02.403Z,157.50
2018-05-23T06:01:02.329Z,163.13
2018-05-23T06:02:02.287Z,163.13
2018-05-23T06:03:02.181Z,168.75
2018-05-23T06:04:02.111Z,174.38
2018-05-23T06:05:02.043Z,174.38
2018-05-23T06:06:01.976Z,180.00
2018-05-23T06:07:01.891Z,185.63
2018-05-23T06:08:01.821Z,191.25
2018-05-23T06:09:01.750Z,191.25
2018-05-23T06:10:01.739Z,202.50
2018-05-23T06:11:01.626Z,202.50
2018-05-23T06:12:01.531Z,208.13
2018-05-23T06:13:01.447Z,213.75
2018-05-23T06:14:01.376Z,219.38
2018-05-23T06:15:01.330Z,219.38
2018-05-23T06:16:01.233Z,219.38
2018-05-23T06:17:01.164Z,219.38
2018-05-23T06:18:01.082Z,219.38
2018-05-23T06:19:01.009Z,219.38
2018-05-23T06:20:00.942Z,225.00
2018-05-23T06:21:00.862Z,225.00
2018-05-23T06:22:00.791Z,225.00
2018-05-23T06:23:00.720Z,219.38
2018-05-23T06:24:00.648Z,213.75
2018-05-23T06:25:00.576Z,213.75
2018-05-23T06:26:00.500Z,208.13
2018-05-23T06:27:00.429Z,208.13
2018-05-23T06:28:00.359Z,208.13
2018-05-23T06:29:00.282Z,208.13
2018-05-23T06:30:00.206Z,213.75
2018-05-23T06:31:00.136Z,213.75
2018-05-23T06:32:00.063Z,213.75
2018-05-23T06:32:59.989Z,219.38
2018-05-23T06:33:59.916Z,219.38
2018-05-23T06:34:59.856Z,219.38
2018-05-23T06:35:59.771Z,219.38
2018-05-23T06:36:59.698Z,225.00
2018-05-23T06:37:59.625Z,225.00
2018-05-23T06:38:59.612Z,230.63
2018-05-23T06:39:59.480Z,230.63
2018-05-23T06:40:59.413Z,230.63
2018-05-23T06:41:59.335Z,236.25
2018-05-23T06:42:59.260Z,236.25
2018-05-23T06:43:59.198Z,236.25
2018-05-23T06:44:59.144Z,236.25
2018-05-23T06:45:59.052Z,241.88
2018-05-23T06:46:59.032Z,241.88
2018-05-23T06:47:58.953Z,241.88
2018-05-23T06:48:58.823Z,241.88
2018-05-23T06:49:58.818Z,241.88
2018-05-23T06:50:58.679Z,247.50
2018-05-23T06:51:58.613Z,247.50
2018-05-23T06:52:58.531Z,247.50
2018-05-23T06:53:58.458Z,247.50
2018-05-23T06:54:58.387Z,247.50
2018-05-23T06:55:58.314Z,247.50
2018-05-23T06:56:58.242Z,247.50
2018-05-23T06:57:58.175Z,247.50
2018-05-23T06:58:58.143Z,247.50
2018-05-23T06:59:58.055Z,241.88
2018-05-23T07:00:57.952Z,247.50
2018-05-23T07:01:57.879Z,241.88
2018-05-23T07:02:57.811Z,241.88
2018-05-23T07:03:57.739Z,247.50
2018-05-23T07:04:57.715Z,247.50
2018-05-23T07:05:57.691Z,241.88
2018-05-23T07:06:57.519Z,247.50
2018-05-23T07:07:57.446Z,247.50
2018-05-23T07:08:57.369Z,247.50
2018-05-23T07:09:57.297Z,247.50
2018-05-23T07:10:57.239Z,253.13
2018-05-23T07:11:57.157Z,253.13
2018-05-23T07:12:57.081Z,253.13
2018-05-23T07:13:57.015Z,253.13
2018-05-23T07:14:56.964Z,247.50
2018-05-23T07:15:56.866Z,241.88
2018-05-23T07:16:56.793Z,241.88
2018-05-23T07:17:56.841Z,241.88
2018-05-23T07:18:56.649Z,236.25
2018-05-23T07:19:56.579Z,236.25
2018-05-23T07:20:56.503Z,236.25
2018-05-23T07:21:56.431Z,236.25
2018-05-23T07:22:56.361Z,230.63
2018-05-23T07:23:56.291Z,230.63
2018-05-23T07:24:56.216Z,225.00
2018-05-23T07:25:56.196Z,219.38
2018-05-23T07:26:56.118Z,219.38
2018-05-23T07:27:55.996Z,213.75
2018-05-23T07:28:55.936Z,208.13
2018-05-23T07:29:55.913Z,202.50
2018-05-23T07:30:55.783Z,202.50
2018-05-23T07:31:55.707Z,202.50
2018-05-23T07:32:55.662Z,208.13
2018-05-23T07:33:55.564Z,208.13
2018-05-23T07:34:55.514Z,213.75
2018-05-23T07:35:55.453Z,213.75
2018-05-23T07:36:55.348Z,213.75
2018-05-23T07:37:55.330Z,219.38
2018-05-23T07:38:55.261Z,230.63
2018-05-23T07:39:55.144Z,236.25
2018-05-23T07:40:55.108Z,236.25
2018-05-23T07:41:54.991Z,241.88
2018-05-23T07:42:54.918Z,236.25
2018-05-23T07:43:54.841Z,236.25
2018-05-23T07:44:54.770Z,236.25
2018-05-23T07:45:54.785Z,230.63
2018-05-23T07:46:54.633Z,230.63
2018-05-23T07:47:54.590Z,225.00
2018-05-23T07:48:54.480Z,225.00
2018-05-23T07:49:54.415Z,219.38
2018-05-23T07:50:54.361Z,219.38
2018-05-23T07:51:54.265Z,219.38
2018-05-23T07:52:54.193Z,219.38
2018-05-23T07:53:54.143Z,219.38
2018-05-23T07:54:54.057Z,219.38
2018-05-23T07:55:53.978Z,219.38
2018-05-23T07:56:53.944Z,213.75
2018-05-23T07:57:53.833Z,213.75
2018-05-23T07:58:53.761Z,213.75
2018-05-23T07:59:53.702Z,208.13
2018-05-23T08:00:53.625Z,208.13
2018-05-23T08:01:53.555Z,202.50
2018-05-23T08:02:53.570Z,202.50
2018-05-23T08:03:53.413Z,202.50
2018-05-23T08:04:53.327Z,202.50
2018-05-23T08:05:53.262Z,202.50
2018-05-23T08:06:53.185Z,202.50
2018-05-23T08:07:53.113Z,208.13
2018-05-23T08:08:53.039Z,213.75
2018-05-23T08:09:52.967Z,213.75
2018-05-23T08:10:52.895Z,213.75
2018-05-23T08:11:52.822Z,219.38
2018-05-23T08:12:52.763Z,213.75
2018-05-23T08:13:52.681Z,213.75
2018-05-23T08:14:52.607Z,213.75
2018-05-23T08:15:52.536Z,213.75
2018-05-23T08:16:52.463Z,219.38
2018-05-23T08:17:52.394Z,230.63
2018-05-23T08:18:52.318Z,230.63
2018-05-23T08:19:52.255Z,241.88
2018-05-23T08:20:52.218Z,247.50
2018-05-23T08:21:52.102Z,258.75
2018-05-23T08:22:52.040Z,270.00
2018-05-23T08:23:51.959Z,275.63
2018-05-23T08:24:51.908Z,275.63
2018-05-23T08:25:51.814Z,275.63
2018-05-23T08:26:51.742Z,281.25
2018-05-23T08:27:51.671Z,286.88
2018-05-23T08:28:51.601Z,292.50
2018-05-23T08:29:51.567Z,303.75
2018-05-23T08:30:51.455Z,309.38
2018-05-23T08:31:51.435Z,320.63
2018-05-23T08:32:51.311Z,320.63
2018-05-23T08:33:51.261Z,320.63
2018-05-23T08:34:51.169Z,320.63
2018-05-23T08:35:51.110Z,320.63
2018-05-23T08:36:51.028Z,326.25
2018-05-23T08:37:50.953Z,331.88
2018-05-23T08:38:50.879Z,337.50
2018-05-23T08:39:50.817Z,337.50
2018-05-23T08:40:50.740Z,337.50
2018-05-23T08:41:50.666Z,343.13
2018-05-23T08:42:50.601Z,343.13
2018-05-23T08:43:50.523Z,343.13
2018-05-23T08:44:50.451Z,348.75
2018-05-23T08:45:50.381Z,360.00
2018-05-23T08:46:50.329Z,365.63
2018-05-23T08:47:50.270Z,371.25
2018-05-23T08:48:50.165Z,376.88
2018-05-23T08:49:50.109Z,376.88
2018-05-23T08:50:50.035Z,393.75
2018-05-23T08:51:49.955Z,405.00
2018-05-23T08:52:49.880Z,421.88
2018-05-23T08:53:49.813Z,433.13
2018-05-23T08:54:49.742Z,455.63
2018-05-23T08:55:49.672Z,483.75
2018-05-23T08:56:49.603Z,489.38
2018-05-23T08:57:49.528Z,495.00
2018-05-23T08:58:49.459Z,506.25
2018-05-23T08:59:49.387Z,506.25
2018-05-23T09:00:49.319Z,506.25
2018-05-23T09:01:49.251Z,506.25
2018-05-23T09:02:49.211Z,506.25
2018-05-23T09:03:49.103Z,511.88
2018-05-23T09:04:49.041Z,511.88
2018-05-23T09:05:48.962Z,523.13
2018-05-23T09:06:48.895Z,523.13
2018-05-23T09:07:48.828Z,523.13
2018-05-23T09:08:48.752Z,523.13
2018-05-23T09:09:48.681Z,528.75
2018-05-23T09:10:48.609Z,523.13
2018-05-23T09:11:48.542Z,517.50
2018-05-23T09:12:48.471Z,517.50
2018-05-23T09:13:48.397Z,517.50
2018-05-23T09:14:48.328Z,517.50
2018-05-23T09:15:48.266Z,517.50
2018-05-23T09:16:48.186Z,523.13
2018-05-23T09:17:48.129Z,523.13
2018-05-23T09:18:48.059Z,534.38
2018-05-23T09:19:47.975Z,528.75
2018-05-23T09:20:47.907Z,528.75
2018-05-23T09:21:47.838Z,523.13
2018-05-23T09:22:47.769Z,506.25
2018-05-23T09:23:47.820Z,495.00
2018-05-23T09:24:47.628Z,461.25
2018-05-23T09:25:47.557Z,427.50
2018-05-23T09:26:47.487Z,455.63
2018-05-23T09:27:47.422Z,444.38
2018-05-23T09:28:47.346Z,427.50
2018-05-23T09:29:47.288Z,410.63
2018-05-23T09:30:47.209Z,393.75
2018-05-23T09:31:47.140Z,376.88
2018-05-23T09:32:47.073Z,360.00
2018-05-23T09:33:46.998Z,348.75
2018-05-23T09:34:46.931Z,331.88
2018-05-23T09:35:46.860Z,315.00
2018-05-23T09:36:46.802Z,309.38
2018-05-23T09:37:46.721Z,292.50
2018-05-23T09:38:46.652Z,281.25
2018-05-23T09:39:46.581Z,275.63
2018-05-23T09:40:46.518Z,264.38
2018-05-23T09:41:46.444Z,264.38
2018-05-23T09:42:46.372Z,264.38
2018-05-23T09:43:46.309Z,258.75
2018-05-23T09:44:46.230Z,253.13
2018-05-23T09:45:46.162Z,247.50
2018-05-23T09:46:46.092Z,247.50
2018-05-23T09:47:46.025Z,247.50
2018-05-23T09:48:45.950Z,241.88
2018-05-23T09:49:45.883Z,241.88
2018-05-23T09:50:45.814Z,247.50
2018-05-23T09:51:45.742Z,247.50
2018-05-23T09:52:45.670Z,247.50
2018-05-23T09:53:45.604Z,247.50
2018-05-23T09:54:45.529Z,247.50
2018-05-23T09:55:45.459Z,253.13
2018-05-23T09:56:45.392Z,253.13
2018-05-23T09:57:45.319Z,253.13
2018-05-23T09:58:45.251Z,253.13
2018-05-23T09:59:45.179Z,253.13
2018-05-23T10:00:45.107Z,258.75
2018-05-23T10:01:45.038Z,258.75
2018-05-23T10:02:44.985Z,258.75
2018-05-23T10:03:44.900Z,258.75
2018-05-23T10:04:44.830Z,258.75
2018-05-23T10:05:44.776Z,264.38
2018-05-23T10:06:44.686Z,264.38
2018-05-23T10:07:44.616Z,270.00
2018-05-23T10:08:44.545Z,270.00
2018-05-23T10:09:44.473Z,270.00
2018-05-23T10:10:44.403Z,270.00
2018-05-23T10:11:44.334Z,275.63
2018-05-23T10:12:44.261Z,275.63
2018-05-23T10:13:44.252Z,275.63
2018-05-23T10:14:44.123Z,281.25
2018-05-23T10:15:44.052Z,270.00
2018-05-23T10:16:43.981Z,275.63
2018-05-23T10:17:43.934Z,275.63
2018-05-23T10:18:43.855Z,275.63
2018-05-23T10:19:43.770Z,275.63
2018-05-23T10:20:43.705Z,275.63
2018-05-23T10:21:43.631Z,275.63
2018-05-23T10:22:43.580Z,275.63
2018-05-23T10:23:43.489Z,281.25
2018-05-23T10:24:43.420Z,281.25
2018-05-23T10:25:43.354Z,286.88
2018-05-23T10:26:43.278Z,286.88
2018-05-23T10:27:43.210Z,292.50
2018-05-23T10:28:43.134Z,298.13
2018-05-23T10:29:43.070Z,303.75
2018-05-23T10:30:42.996Z,309.38
2018-05-23T10:31:42.927Z,309.38
2018-05-23T10:32:42.857Z,309.38
2018-05-23T10:33:42.785Z,315.00
2018-05-23T10:34:42.715Z,320.63
2018-05-23T10:35:42.646Z,326.25
2018-05-23T10:36:42.577Z,326.25
2018-05-23T10:37:42.509Z,326.25
2018-05-23T10:38:42.434Z,337.50
2018-05-23T10:39:42.365Z,343.13
2018-05-23T10:40:42.295Z,343.13
2018-05-23T10:41:42.227Z,343.13
2018-05-23T10:42:42.156Z,348.75
2018-05-23T10:43:42.085Z,343.13
2018-05-23T10:44:42.016Z,343.13
2018-05-23T10:45:41.945Z,348.75
2018-05-23T10:46:41.875Z,354.38
2018-05-23T10:47:41.810Z,354.38
2018-05-23T10:48:41.735Z,360.00
2018-05-23T10:49:41.666Z,360.00
2018-05-23T10:50:41.596Z,360.00
2018-05-23T10:51:41.584Z,360.00
2018-05-23T10:52:41.453Z,360.00
2018-05-23T10:53:41.387Z,360.00
2018-05-23T10:54:41.317Z,360.00
2018-05-23T10:55:41.254Z,360.00
2018-05-23T10:56:41.178Z,354.38
2018-05-23T10:57:41.112Z,354.38
2018-05-23T10:58:41.050Z,354.38
2018-05-23T10:59:40.969Z,354.38
2018-05-23T11:00:40.900Z,360.00
2018-05-23T11:01:40.831Z,365.63
2018-05-23T11:02:40.760Z,365.63
2018-05-23T11:03:40.692Z,365.63
2018-05-23T11:04:40.623Z,365.63
2018-05-23T11:05:40.608Z,365.63
2018-05-23T11:06:40.482Z,365.63
2018-05-23T11:07:40.414Z,365.63
2018-05-23T11:08:40.344Z,365.63
2018-05-23T11:09:40.275Z,371.25
2018-05-23T11:10:40.207Z,371.25
2018-05-23T11:11:40.138Z,371.25
2018-05-23T11:12:40.068Z,376.88
2018-05-23T11:13:40.002Z,376.88
2018-05-23T11:14:39.953Z,376.88
2018-05-23T11:15:39.861Z,376.88
2018-05-23T11:16:39.793Z,382.50
2018-05-23T11:17:39.721Z,382.50
2018-05-23T11:18:39.657Z,382.50
2018-05-23T11:19:39.588Z,388.13
2018-05-23T11:20:39.519Z,388.13
2018-05-23T11:21:39.446Z,393.75
2018-05-23T11:22:39.382Z,399.38
2018-05-23T11:23:39.313Z,399.38
2018-05-23T11:24:39.248Z,399.38
2018-05-23T11:25:39.173Z,399.38
2018-05-23T11:26:39.102Z,405.00
2018-05-23T11:27:39.038Z,410.63
2018-05-23T11:28:38.968Z,405.00
2018-05-23T11:29:38.926Z,405.00
2018-05-23T11:30:38.832Z,399.38
2018-05-23T11:31:38.762Z,405.00
2018-05-23T11:32:38.693Z,410.63
2018-05-23T11:33:38.626Z,410.63
2018-05-23T11:34:38.556Z,410.63
2018-05-23T11:35:38.488Z,416.25
2018-05-23T11:36:38.423Z,416.25
2018-05-23T11:37:38.356Z,416.25
2018-05-23T11:38:38.283Z,416.25
2018-05-23T11:39:38.218Z,410.63
2018-05-23T11:40:38.149Z,410.63
2018-05-23T11:41:38.078Z,416.25
2018-05-23T11:42:38.012Z,416.25
2018-05-23T11:43:37.945Z,421.88
2018-05-23T11:44:37.877Z,421.88
2018-05-23T11:45:37.809Z,421.88
2018-05-23T11:46:37.829Z,427.50
2018-05-23T11:47:37.673Z,433.13
2018-05-23T11:48:37.603Z,450.00
2018-05-23T11:49:37.535Z,461.25
2018-05-23T11:50:37.469Z,455.63
2018-05-23T11:51:37.409Z,455.63
2018-05-23T11:52:37.333Z,450.00
2018-05-23T11:53:37.265Z,444.38
2018-05-23T11:54:37.233Z,466.88
2018-05-23T11:55:37.140Z,472.50
2018-05-23T11:56:37.071Z,472.50
2018-05-23T11:57:36.996Z,489.38
2018-05-23T11:58:36.929Z,500.63
2018-05-23T11:59:36.880Z,511.88
2018-05-23T12:00:36.791Z,517.50
2018-05-23T12:01:36.725Z,545.63
2018-05-23T12:02:36.691Z,545.63
2018-05-23T12:03:36.590Z,562.50
2018-05-23T12:04:36.521Z,556.88
2018-05-23T12:05:36.454Z,500.63
2018-05-23T12:06:36.397Z,534.38
2018-05-23T12:07:36.321Z,573.75
2018-05-23T12:08:36.252Z,444.38
2018-05-23T12:09:36.182Z,545.63
2018-05-23T12:10:36.240Z,568.13
2018-05-23T12:11:36.049Z,573.75
2018-05-23T12:12:35.982Z,573.75
2018-05-23T12:13:35.929Z,618.75
2018-05-23T12:14:35.848Z,652.50
2018-05-23T12:15:35.781Z,669.38
2018-05-23T12:16:35.715Z,680.63
2018-05-23T12:17:35.646Z,686.25
2018-05-23T12:18:35.582Z,686.25
2018-05-23T12:19:35.593Z,669.38
2018-05-23T12:20:35.446Z,652.50
2018-05-23T12:21:35.382Z,630.00
2018-05-23T12:22:35.311Z,618.75
2018-05-23T12:23:35.276Z,607.50
2018-05-23T12:24:35.180Z,562.50
2018-05-23T12:25:35.112Z,545.63
2018-05-23T12:26:35.046Z,534.38
2018-05-23T12:27:35.001Z,545.63
2018-05-23T12:28:34.914Z,528.75
2018-05-23T12:29:34.847Z,478.13
2018-05-23T12:30:34.780Z,472.50
2018-05-23T12:31:34.717Z,309.38
2018-05-23T12:32:34.709Z,303.75
2018-05-23T12:33:34.582Z,348.75
2018-05-23T12:34:34.522Z,466.88
2018-05-23T12:35:34.449Z,624.38
2018-05-23T12:36:34.383Z,506.25
2018-05-23T12:37:34.319Z,450.00
2018-05-23T12:38:34.251Z,630.00
2018-05-23T12:39:34.186Z,675.00
2018-05-23T12:40:34.118Z,641.25
2018-05-23T12:41:34.058Z,630.00
2018-05-23T12:42:33.987Z,613.13
2018-05-23T12:43:33.922Z,624.38
2018-05-23T12:44:33.869Z,635.63